Time;durP1;ratioP1;P1;durP2;ratioP2;P2;SDS_P1;SDS_P2;PMS_P1;PMS_P2;Temp;Humidity;BMP_temperature;BMP_pressure;BME280_temperature;BME280_humidity;BME280_pressure;Samples;Min_cycle;Max_cycle;Signal;HPM_P1;HPM_P2
2022/05/05 00:02:01;;;;;;;6.40;5.90;;;;;;;;;;5059894;28;20572;-65
2022/05/05 00:04:29;;;;;;;6.43;5.90;;;;;;;;;;5064077;28;20205;-64
2022/05/05 00:06:56;;;;;;;6.40;5.80;;;;;;;;;;5061704;28;20652;-65
2022/05/05 00:09:24;;;;;;;6.17;5.57;;;;;;;;;;5064304;28;20213;-64
2022/05/05 00:14:39;;;;;;;6.00;5.50;;;;;;;;;;5085390;28;20205;-64
2022/05/05 00:17:07;;;;;;;6.40;5.90;;;;;;;;;;5060836;28;20288;-64
2022/05/05 00:19:36;;;;;;;5.83;5.33;;;;;;;;;;5070342;28;20209;-64
2022/05/05 00:22:04;;;;;;;6.10;5.40;;;;;;;;;;5057625;28;20205;-64
2022/05/05 00:24:31;;;;;;;6.53;6.00;;;;;;;;;;5063491;28;20237;-65
2022/05/05 00:26:59;;;;;;;6.97;5.97;;;;;;;;;;5061463;28;20229;-65
2022/05/05 00:29:26;;;;;;;6.13;5.63;;;;;;;;;;5059813;28;20243;-64
2022/05/05 00:31:54;;;;;;;6.07;5.57;;;;;;;;;;5053529;28;20205;-65
2022/05/05 00:34:21;;;;;;;6.00;5.40;;;;;;;;;;5055302;28;20227;-66
2022/05/05 00:36:49;;;;;;;5.93;5.43;;;;;;;;;;5059027;28;20233;-64
2022/05/05 00:39:16;;;;;;;6.53;6.03;;;;;;;;;;5057785;28;20258;-63
2022/05/05 00:41:45;;;;;;;5.73;5.30;;;;;;;;;;5059728;28;20714;-65
2022/05/05 00:44:12;;;;;;;5.90;5.30;;;;;;;;;;5062745;28;20287;-66
2022/05/05 00:46:40;;;;;;;6.07;5.47;;;;;;;;;;5057327;28;20248;-65
2022/05/05 00:49:07;;;;;;;6.40;5.80;;;;;;;;;;5063520;28;20221;-65
2022/05/05 00:51:35;;;;;;;6.93;6.33;;;;;;;;;;5065206;28;20205;-63
2022/05/05 00:54:02;;;;;;;7.30;6.60;;;;;;;;;;5061976;28;20197;-65
2022/05/05 00:56:30;;;;;;;6.90;6.40;;;;;;;;;;5056543;28;20225;-64
2022/05/05 00:58:58;;;;;;;6.30;5.80;;;;;;;;;;5057666;28;20205;-65
2022/05/05 01:01:31;;;;;;;6.73;6.20;;;;;;;;;;5057518;28;20330;-64
2022/05/05 01:03:59;;;;;;;6.67;5.77;;;;;;;;;;5052950;28;20308;-66
2022/05/05 01:06:27;;;;;;;6.47;5.73;;;;;;;;;;5058178;28;20225;-64
2022/05/05 01:08:55;;;;;;;7.50;6.03;;;;;;;;;;5057508;28;20223;-64
2022/05/05 01:11:22;;;;;;;6.93;6.03;;;;;;;;;;5051742;28;20674;-65
2022/05/05 01:13:50;;;;;;;6.90;6.30;;;;;;;;;;5059000;28;20201;-65
2022/05/05 01:16:17;;;;;;;6.47;5.83;;;;;;;;;;5059528;28;20710;-65
2022/05/05 01:18:46;;;;;;;7.03;6.33;;;;;;;;;;5060077;28;20200;-66
2022/05/05 01:21:13;;;;;;;6.60;6.00;;;;;;;;;;5064445;28;20238;-65
2022/05/05 01:23:41;;;;;;;6.93;6.27;;;;;;;;;;5057725;28;20204;-65
2022/05/05 01:28:56;;;;;;;6.27;5.77;;;;;;;;;;5071595;28;20247;-65
2022/05/05 01:31:23;;;;;;;6.10;5.60;;;;;;;;;;5055704;28;20201;-64
2022/05/05 01:33:51;;;;;;;5.90;5.40;;;;;;;;;;5056363;28;20213;-66
2022/05/05 01:36:18;;;;;;;6.60;6.00;;;;;;;;;;5065026;28;20329;-65
2022/05/05 01:38:45;;;;;;;6.33;5.83;;;;;;;;;;5039849;28;20224;-65
2022/05/05 01:41:14;;;;;;;7.03;6.23;;;;;;;;;;5059743;28;20254;-66
2022/05/05 01:43:45;;;;;;;7.30;6.70;;;;;;;;;;5059249;28;20205;-65
2022/05/05 01:46:14;;;;;;;8.43;7.23;;;;;;;;;;5057599;28;20225;-63
2022/05/05 01:48:41;;;;;;;7.23;6.60;;;;;;;;;;5057503;28;20294;-65
2022/05/05 01:51:09;;;;;;;7.80;7.10;;;;;;;;;;5060395;28;20256;-65
2022/05/05 01:53:36;;;;;;;7.77;6.97;;;;;;;;;;5064222;28;20282;-65
2022/05/05 01:56:09;;;;;;;7.27;6.57;;;;;;;;;;5076535;28;20204;-65
2022/05/05 01:58:38;;;;;;;6.50;6.00;;;;;;;;;;5059811;28;20208;-64
2022/05/05 02:01:09;;;;;;;6.20;5.70;;;;;;;;;;5059746;28;20254;-64
2022/05/05 02:03:37;;;;;;;6.87;6.30;;;;;;;;;;5064218;28;20205;-64
2022/05/05 02:06:05;;;;;;;6.67;6.07;;;;;;;;;;5063931;28;20661;-65
2022/05/05 02:08:33;;;;;;;7.43;6.73;;;;;;;;;;5057793;28;20693;-65
2022/05/05 02:11:00;;;;;;;7.23;6.63;;;;;;;;;;5073054;28;20197;-65
2022/05/05 02:13:27;;;;;;;7.30;6.50;;;;;;;;;;5058971;28;21514;-65
2022/05/05 02:15:58;;;;;;;6.70;6.10;;;;;;;;;;5055087;28;20725;-63
2022/05/05 02:18:26;;;;;;;7.33;6.27;;;;;;;;;;5052700;28;20246;-64
2022/05/05 02:20:53;;;;;;;6.83;6.23;;;;;;;;;;5061815;28;20296;-65
2022/05/05 02:23:21;;;;;;;6.50;5.90;;;;;;;;;;5051142;28;20204;-65
2022/05/05 02:25:48;;;;;;;6.90;6.27;;;;;;;;;;5056239;28;20214;-63
2022/05/05 02:28:16;;;;;;;6.70;5.73;;;;;;;;;;5056019;28;20328;-65
2022/05/05 02:30:44;;;;;;;6.33;5.83;;;;;;;;;;5053115;28;20252;-65
2022/05/05 02:33:11;;;;;;;6.57;5.93;;;;;;;;;;5060295;28;20254;-64
2022/05/05 02:35:39;;;;;;;6.87;6.17;;;;;;;;;;5056058;28;20228;-63
2022/05/05 02:40:52;;;;;;;7.27;6.43;;;;;;;;;;5075590;28;20899;-65
2022/05/05 02:43:20;;;;;;;6.97;6.37;;;;;;;;;;5077878;28;20213;-65
2022/05/05 02:45:48;;;;;;;7.80;6.63;;;;;;;;;;5065882;28;20227;-66
2022/05/05 02:48:15;;;;;;;7.47;6.70;;;;;;;;;;5069550;28;20229;-65
2022/05/05 02:50:43;;;;;;;7.47;6.77;;;;;;;;;;5069468;28;20207;-62
2022/05/05 02:55:56;;;;;;;7.90;7.20;;;;;;;;;;5075208;28;20215;-64
2022/05/05 02:58:23;;;;;;;7.57;6.70;;;;;;;;;;5060394;28;20235;-65
2022/05/05 03:00:50;;;;;;;7.10;6.40;;;;;;;;;;5060460;28;20201;-64
2022/05/05 03:03:18;;;;;;;7.80;6.83;;;;;;;;;;5060952;28;20212;-64
2022/05/05 03:05:45;;;;;;;7.80;7.10;;;;;;;;;;5064337;28;20209;-64
2022/05/05 03:08:13;;;;;;;7.70;7.00;;;;;;;;;;5060802;28;20234;-64
2022/05/05 03:10:40;;;;;;;7.53;6.83;;;;;;;;;;5062042;28;20670;-63
2022/05/05 03:13:17;;;;;;;7.00;6.40;;;;;;;;;;5066875;28;20209;-65
2022/05/05 03:15:45;;;;;;;7.63;6.73;;;;;;;;;;5058635;28;20212;-62
2022/05/05 03:18:13;;;;;;;26.57;16.77;;;;;;;;;;5068576;28;20221;-62
2022/05/05 03:20:40;;;;;;;18.27;12.10;;;;;;;;;;5066151;28;20224;-65
2022/05/05 03:23:08;;;;;;;6.60;6.00;;;;;;;;;;5056280;28;20292;-65
2022/05/05 03:25:35;;;;;;;6.60;5.97;;;;;;;;;;5064704;28;20208;-64
2022/05/05 03:28:03;;;;;;;6.90;5.87;;;;;;;;;;5057568;28;20311;-64
2022/05/05 03:30:30;;;;;;;7.20;6.50;;;;;;;;;;5056776;28;20205;-64
2022/05/05 03:32:57;;;;;;;8.73;7.83;;;;;;;;;;5051287;28;20736;-63
2022/05/05 03:35:25;;;;;;;6.80;6.10;;;;;;;;;;5062690;28;20231;-64
2022/05/05 03:37:52;;;;;;;7.23;6.60;;;;;;;;;;5066320;28;20225;-64
2022/05/05 03:40:20;;;;;;;7.97;7.27;;;;;;;;;;5061729;28;20221;-64
2022/05/05 03:42:47;;;;;;;7.50;6.80;;;;;;;;;;5059338;28;20201;-63
2022/05/05 03:45:14;;;;;;;7.60;6.70;;;;;;;;;;5057020;28;20209;-63
2022/05/05 03:47:45;;;;;;;7.57;6.87;;;;;;;;;;5052196;28;20232;-64
2022/05/05 03:50:12;;;;;;;8.10;7.23;;;;;;;;;;5057637;28;20193;-64
2022/05/05 03:52:40;;;;;;;7.97;7.17;;;;;;;;;;5060830;28;20763;-64
2022/05/05 03:55:08;;;;;;;8.07;7.27;;;;;;;;;;5059830;28;20208;-64
2022/05/05 03:57:35;;;;;;;8.10;7.40;;;;;;;;;;5055670;28;20289;-65
2022/05/05 04:00:04;;;;;;;7.93;7.23;;;;;;;;;;5057956;28;20266;-64
2022/05/05 04:02:31;;;;;;;8.40;7.60;;;;;;;;;;5057797;28;20216;-64
2022/05/05 04:04:58;;;;;;;8.77;7.43;;;;;;;;;;5068068;28;20204;-64
2022/05/05 04:07:26;;;;;;;7.97;7.10;;;;;;;;;;5057985;28;20224;-66
2022/05/05 04:09:54;;;;;;;8.40;7.47;;;;;;;;;;5055349;28;20205;-66
2022/05/05 04:12:22;;;;;;;9.60;8.60;;;;;;;;;;5061237;28;20212;-66
2022/05/05 04:14:50;;;;;;;12.53;10.73;;;;;;;;;;5061168;28;20208;-63
2022/05/05 04:17:18;;;;;;;11.63;9.67;;;;;;;;;;5080156;28;20221;-63
2022/05/05 04:19:45;;;;;;;9.40;8.50;;;;;;;;;;5048182;28;20244;-62
2022/05/05 04:22:13;;;;;;;8.43;7.57;;;;;;;;;;5062953;28;20308;-64
2022/05/05 04:24:40;;;;;;;8.43;7.53;;;;;;;;;;5061337;28;20580;-64
2022/05/05 04:27:09;;;;;;;9.33;8.43;;;;;;;;;;5059323;28;20286;-63
2022/05/05 04:29:37;;;;;;;9.47;8.57;;;;;;;;;;5071576;28;20215;-64
2022/05/05 04:32:17;;;;;;;11.57;10.37;;;;;;;;;;5062030;28;20804;-64
2022/05/05 04:34:47;;;;;;;9.73;8.73;;;;;;;;;;5060156;28;20193;-64
2022/05/05 04:37:14;;;;;;;10.33;9.13;;;;;;;;;;5063744;28;21678;-63
2022/05/05 04:39:44;;;;;;;9.87;8.97;;;;;;;;;;5061159;28;20220;-64
2022/05/05 04:42:13;;;;;;;9.27;8.37;;;;;;;;;;5056782;28;20209;-63
2022/05/05 04:44:40;;;;;;;9.07;8.17;;;;;;;;;;5055806;28;20209;-64
2022/05/05 04:47:07;;;;;;;8.50;7.70;;;;;;;;;;5061018;28;20229;-63
2022/05/05 04:49:35;;;;;;;9.47;8.43;;;;;;;;;;5066454;28;21042;-64
2022/05/05 04:52:02;;;;;;;9.37;8.43;;;;;;;;;;5061012;28;20250;-64
2022/05/05 04:54:29;;;;;;;13.17;10.40;;;;;;;;;;5061722;28;20201;-64
2022/05/05 04:56:57;;;;;;;12.30;10.27;;;;;;;;;;5060724;28;20221;-64
2022/05/05 04:59:24;;;;;;;9.00;7.83;;;;;;;;;;5073138;28;20789;-63
2022/05/05 05:01:52;;;;;;;7.23;6.63;;;;;;;;;;5063960;28;20212;-64
2022/05/05 05:04:20;;;;;;;7.40;6.80;;;;;;;;;;5064633;28;20202;-63
2022/05/05 05:06:47;;;;;;;6.90;6.30;;;;;;;;;;5063785;28;20643;-64
2022/05/05 05:09:15;;;;;;;6.60;6.00;;;;;;;;;;5058175;28;20216;-64
2022/05/05 05:11:42;;;;;;;6.90;6.30;;;;;;;;;;5072919;28;20208;-62
2022/05/05 05:14:09;;;;;;;7.20;6.50;;;;;;;;;;5096299;28;20231;-67
2022/05/05 05:16:37;;;;;;;6.23;5.73;;;;;;;;;;5080021;28;20330;-64
2022/05/05 05:19:08;;;;;;;7.00;6.40;;;;;;;;;;5068591;28;20264;-65
2022/05/05 05:21:39;;;;;;;7.37;6.77;;;;;;;;;;5066315;28;20221;-64
2022/05/05 05:24:07;;;;;;;7.37;6.57;;;;;;;;;;5080605;28;20216;-64
2022/05/05 05:26:34;;;;;;;7.80;7.10;;;;;;;;;;5063921;28;20595;-63
2022/05/05 05:29:01;;;;;;;7.83;7.03;;;;;;;;;;5062899;28;20216;-63
2022/05/05 05:31:29;;;;;;;7.90;6.93;;;;;;;;;;5061481;28;20206;-64
2022/05/05 05:33:56;;;;;;;7.50;6.90;;;;;;;;;;5063534;28;20212;-64
2022/05/05 05:36:24;;;;;;;7.57;6.87;;;;;;;;;;5058198;28;20259;-64
2022/05/05 05:38:51;;;;;;;7.77;7.03;;;;;;;;;;5061498;28;20201;-64
2022/05/05 05:41:19;;;;;;;8.13;6.53;;;;;;;;;;5066299;28;20209;-64
2022/05/05 05:43:46;;;;;;;7.97;7.17;;;;;;;;;;5076547;28;20200;-64
2022/05/05 05:46:14;;;;;;;7.90;7.17;;;;;;;;;;5079514;28;20647;-64
2022/05/05 05:48:42;;;;;;;8.13;6.93;;;;;;;;;;5081283;28;20233;-64
2022/05/05 05:51:09;;;;;;;8.00;7.30;;;;;;;;;;5065736;28;20208;-64
2022/05/05 05:53:36;;;;;;;8.63;7.70;;;;;;;;;;5062169;28;20248;-64
2022/05/05 05:56:04;;;;;;;8.10;7.40;;;;;;;;;;5066153;28;20212;-64
2022/05/05 05:58:31;;;;;;;8.30;7.60;;;;;;;;;;5059517;28;20737;-64
2022/05/05 06:00:58;;;;;;;9.00;7.93;;;;;;;;;;5064637;28;20213;-65
2022/05/05 06:06:12;;;;;;;8.83;8.03;;;;;;;;;;5077513;28;20267;-64
2022/05/05 06:08:39;;;;;;;8.73;7.93;;;;;;;;;;5059313;28;20710;-62
2022/05/05 06:11:09;;;;;;;9.53;8.53;;;;;;;;;;5062607;28;20212;-64
2022/05/05 06:13:36;;;;;;;12.80;8.50;;;;;;;;;;5071095;28;20193;-64
2022/05/05 06:16:04;;;;;;;9.60;8.63;;;;;;;;;;5097977;28;20188;-64
2022/05/05 06:18:32;;;;;;;9.27;8.37;;;;;;;;;;5092960;28;20275;-65
2022/05/05 06:21:00;;;;;;;9.80;8.90;;;;;;;;;;5068784;28;20209;-64
2022/05/05 06:23:27;;;;;;;10.50;9.50;;;;;;;;;;5087902;28;20208;-64
2022/05/05 06:25:54;;;;;;;9.97;9.13;;;;;;;;;;5068188;28;20193;-64
2022/05/05 06:28:22;;;;;;;10.80;9.80;;;;;;;;;;5072463;28;20773;-64
2022/05/05 06:30:49;;;;;;;10.27;9.27;;;;;;;;;;5088512;28;20203;-64
2022/05/05 06:33:17;;;;;;;12.07;10.87;;;;;;;;;;5074536;28;20197;-63
2022/05/05 06:35:44;;;;;;;13.97;12.07;;;;;;;;;;5070941;28;20686;-64
2022/05/05 06:38:12;;;;;;;10.97;9.83;;;;;;;;;;5072140;28;20242;-64
2022/05/05 06:40:41;;;;;;;11.73;10.63;;;;;;;;;;5068890;28;20200;-64
2022/05/05 06:43:09;;;;;;;11.27;10.20;;;;;;;;;;5061569;28;20236;-64
2022/05/05 06:45:37;;;;;;;12.40;10.20;;;;;;;;;;5072875;28;20209;-64
2022/05/05 06:48:04;;;;;;;12.27;10.57;;;;;;;;;;5068214;28;20232;-64
2022/05/05 06:50:32;;;;;;;10.83;9.73;;;;;;;;;;5061848;28;20218;-64
2022/05/05 06:53:00;;;;;;;11.27;10.27;;;;;;;;;;5080295;28;23944;-64
2022/05/05 06:55:28;;;;;;;11.70;10.30;;;;;;;;;;5057004;28;20209;-63
2022/05/05 06:57:55;;;;;;;11.83;10.60;;;;;;;;;;5065850;28;20236;-64
2022/05/05 07:00:22;;;;;;;13.00;11.30;;;;;;;;;;5066829;28;20208;-64
2022/05/05 07:02:50;;;;;;;11.33;10.23;;;;;;;;;;5056538;28;20202;-65
2022/05/05 07:05:23;;;;;;;15.53;12.50;;;;;;;;;;5059110;28;20208;-63
2022/05/05 07:07:52;;;;;;;15.47;13.33;;;;;;;;;;5067547;28;20232;-65
2022/05/05 07:13:05;;;;;;;12.30;11.10;;;;;;;;;;5080137;28;20269;-64
2022/05/05 07:15:33;;;;;;;12.33;11.13;;;;;;;;;;5062440;28;20201;-64
2022/05/05 07:18:00;;;;;;;12.80;11.60;;;;;;;;;;5079330;28;20237;-64
2022/05/05 07:20:28;;;;;;;12.23;10.77;;;;;;;;;;5068980;28;20219;-64
2022/05/05 07:22:56;;;;;;;13.10;11.23;;;;;;;;;;5065177;28;20386;-64
2022/05/05 07:25:24;;;;;;;12.70;11.50;;;;;;;;;;5071000;28;20216;-63
2022/05/05 07:27:51;;;;;;;12.27;11.07;;;;;;;;;;5061996;28;20270;-64
2022/05/05 07:30:19;;;;;;;12.53;11.33;;;;;;;;;;5058954;28;20287;-64
2022/05/05 07:32:47;;;;;;;13.60;11.40;;;;;;;;;;5057886;28;20610;-64
2022/05/05 07:35:15;;;;;;;14.97;11.70;;;;;;;;;;5052332;28;20201;-64
2022/05/05 07:37:43;;;;;;;12.87;11.63;;;;;;;;;;5049803;28;20232;-64
2022/05/05 07:40:10;;;;;;;15.07;13.57;;;;;;;;;;5056588;28;20216;-64
2022/05/05 07:42:38;;;;;;;12.63;11.33;;;;;;;;;;5056387;28;20247;-63
2022/05/05 07:45:05;;;;;;;18.20;14.73;;;;;;;;;;5060102;28;20579;-64
2022/05/05 07:47:36;;;;;;;12.83;11.53;;;;;;;;;;5052604;28;20244;-64
2022/05/05 07:50:04;;;;;;;14.90;13.40;;;;;;;;;;5064521;28;20224;-62
2022/05/05 07:52:32;;;;;;;13.47;11.90;;;;;;;;;;5058146;28;20288;-63
2022/05/05 07:54:59;;;;;;;12.43;11.23;;;;;;;;;;5058955;28;20196;-64
2022/05/05 07:57:26;;;;;;;14.40;12.90;;;;;;;;;;5052342;28;20217;-63
2022/05/05 07:59:54;;;;;;;14.00;12.53;;;;;;;;;;5058559;28;20201;-64
2022/05/05 08:02:21;;;;;;;14.93;13.50;;;;;;;;;;5048084;28;20209;-64
2022/05/05 08:04:49;;;;;;;14.33;12.47;;;;;;;;;;5049889;28;20349;-63
2022/05/05 08:07:17;;;;;;;15.90;13.77;;;;;;;;;;5052369;28;20316;-64
2022/05/05 08:09:44;;;;;;;14.00;12.60;;;;;;;;;;5047822;28;20244;-64
2022/05/05 08:12:27;;;;;;;14.43;13.00;;;;;;;;;;5059036;28;20200;-64
2022/05/05 08:14:55;;;;;;;16.47;14.63;;;;;;;;;;5070351;28;20298;-64
2022/05/05 08:17:22;;;;;;;15.87;14.27;;;;;;;;;;5044962;28;20707;-64
2022/05/05 08:19:50;;;;;;;15.17;13.57;;;;;;;;;;5058482;28;20253;-64
2022/05/05 08:22:19;;;;;;;16.53;14.23;;;;;;;;;;5054728;28;20212;-63
2022/05/05 08:30:18;;;;;;;18.77;16.80;;;;;;;;;;5069029;28;20204;-62
2022/05/05 08:32:46;;;;;;;17.13;15.40;;;;;;;;;;5056904;28;20241;-64
2022/05/05 08:35:14;;;;;;;16.53;14.83;;;;;;;;;;5066404;28;20224;-63
2022/05/05 08:37:42;;;;;;;17.40;15.70;;;;;;;;;;5063816;28;20544;-64
2022/05/05 08:40:14;;;;;;;17.83;15.90;;;;;;;;;;5078490;28;20201;-64
2022/05/05 08:42:41;;;;;;;17.33;15.53;;;;;;;;;;5062674;28;20205;-64
2022/05/05 08:45:09;;;;;;;18.17;16.27;;;;;;;;;;5066816;28;20679;-64
2022/05/05 08:47:38;;;;;;;18.07;16.17;;;;;;;;;;5054258;28;20224;-63
2022/05/05 08:50:09;;;;;;;17.83;16.00;;;;;;;;;;5056774;28;20290;-62
2022/05/05 08:52:40;;;;;;;17.37;15.67;;;;;;;;;;5074980;28;20321;-64
2022/05/05 08:55:13;;;;;;;17.97;16.10;;;;;;;;;;5073522;28;20205;-63
2022/05/05 08:57:41;;;;;;;21.23;17.90;;;;;;;;;;5060701;28;20872;-62
2022/05/05 09:00:10;;;;;;;17.13;15.33;;;;;;;;;;5058123;28;20647;-64
2022/05/05 09:02:38;;;;;;;16.87;15.10;;;;;;;;;;5063572;28;20201;-64
2022/05/05 09:05:08;;;;;;;16.47;14.77;;;;;;;;;;5057643;28;20228;-64
2022/05/05 09:07:54;;;;;;;15.97;14.37;;;;;;;;;;5057395;28;21210;-64
2022/05/05 09:10:22;;;;;;;18.07;16.13;;;;;;;;;;5059069;28;20219;-64
2022/05/05 09:12:59;;;;;;;16.47;14.80;;;;;;;;;;5054813;28;20762;-63
2022/05/05 09:15:34;;;;;;;16.77;15.07;;;;;;;;;;5054944;28;20204;-64
2022/05/05 09:18:12;;;;;;;18.37;16.53;;;;;;;;;;5072321;28;20245;-64
2022/05/05 09:20:39;;;;;;;16.50;14.90;;;;;;;;;;5082200;28;20201;-67
2022/05/05 09:23:27;;;;;;;15.53;14.03;;;;;;;;;;5068342;28;20204;-64
2022/05/05 09:25:55;;;;;;;16.30;14.67;;;;;;;;;;5055586;28;20204;-63
2022/05/05 09:28:30;;;;;;;16.83;15.13;;;;;;;;;;5063151;28;20225;-64
2022/05/05 09:31:10;;;;;;;17.60;15.80;;;;;;;;;;5061976;28;20213;-65
2022/05/05 09:33:38;;;;;;;17.47;15.50;;;;;;;;;;5064974;28;20209;-63
2022/05/05 09:36:10;;;;;;;16.10;14.10;;;;;;;;;;5051764;28;20576;-64
2022/05/05 09:38:57;;;;;;;21.43;18.60;;;;;;;;;;5061724;28;20253;-64
2022/05/05 09:41:26;;;;;;;17.47;15.40;;;;;;;;;;5056505;28;20208;-64
2022/05/05 09:43:54;;;;;;;16.90;15.20;;;;;;;;;;5061486;28;20363;-63
2022/05/05 09:46:28;;;;;;;16.97;15.17;;;;;;;;;;5057162;28;20248;-64
2022/05/05 09:49:08;;;;;;;16.10;14.60;;;;;;;;;;5065070;28;20243;-63
2022/05/05 09:57:39;;;;;;;14.33;12.97;;;;;;;;;;5063835;28;20201;-63
2022/05/05 09:57:41;;;;;;;14.20;12.80;;;;;;;;;;5072879;28;20457;-63
2022/05/05 10:00:23;;;;;;;16.40;14.80;;;;;;;;;;5060022;28;20213;-64
2022/05/05 10:05:46;;;;;;;12.63;11.33;;;;;;;;;;5066346;28;20331;-64
2022/05/05 10:08:20;;;;;;;13.30;12.00;;;;;;;;;;5057228;28;21166;-64
2022/05/05 10:10:48;;;;;;;12.97;11.77;;;;;;;;;;5060575;28;20212;-64
2022/05/05 10:13:20;;;;;;;14.00;12.63;;;;;;;;;;5059493;28;20205;-64
2022/05/05 10:15:49;;;;;;;14.07;12.67;;;;;;;;;;5058902;28;20292;-63
2022/05/05 10:18:27;;;;;;;14.30;12.90;;;;;;;;;;5057400;28;20250;-65
2022/05/05 10:20:57;;;;;;;14.50;13.20;;;;;;;;;;5059626;28;20204;-64
2022/05/05 10:23:38;;;;;;;14.47;13.07;;;;;;;;;;5056912;28;20200;-64
2022/05/05 10:26:10;;;;;;;13.73;12.53;;;;;;;;;;5057075;28;20213;-65
2022/05/05 10:28:41;;;;;;;13.20;11.97;;;;;;;;;;5078155;28;20273;-64
2022/05/05 10:31:27;;;;;;;13.37;12.17;;;;;;;;;;5072986;28;20208;-64
2022/05/05 10:34:08;;;;;;;14.77;13.33;;;;;;;;;;5070777;28;20211;-64
2022/05/05 10:36:36;;;;;;;14.80;13.40;;;;;;;;;;5057895;28;20220;-63
2022/05/05 10:39:21;;;;;;;14.27;12.97;;;;;;;;;;5057526;28;20245;-64
2022/05/05 10:41:51;;;;;;;13.80;12.50;;;;;;;;;;5056944;28;20236;-64
2022/05/05 10:44:19;;;;;;;13.97;12.67;;;;;;;;;;5063736;28;20331;-64
2022/05/05 10:47:03;;;;;;;14.47;12.97;;;;;;;;;;5062344;28;21304;-64
2022/05/05 10:49:33;;;;;;;20.10;18.00;;;;;;;;;;5095342;28;20213;-64
2022/05/05 10:52:09;;;;;;;14.63;13.23;;;;;;;;;;5098132;28;20209;-66
2022/05/05 10:54:42;;;;;;;13.07;11.87;;;;;;;;;;5059093;28;20213;-64
2022/05/05 10:57:29;;;;;;;12.95;11.65;;;;;;;;;;5066128;28;20282;-64
2022/05/05 11:00:06;;;;;;;12.87;11.67;;;;;;;;;;5056652;28;20213;-64
2022/05/05 11:02:34;;;;;;;13.70;12.40;;;;;;;;;;5050136;28;20250;-64
2022/05/05 11:05:28;;;;;;;13.30;12.03;;;;;;;;;;5065081;28;20293;-65
2022/05/05 11:07:57;;;;;;;13.00;11.63;;;;;;;;;;5080014;28;20225;-65
2022/05/05 11:10:44;;;;;;;12.87;11.63;;;;;;;;;;5055454;28;20635;-64
2022/05/05 11:13:35;;;;;;;12.70;11.60;;;;;;;;;;5061425;28;21487;-62
2022/05/05 11:22:07;;;;;;;12.20;11.10;;;;;;;;;;5074326;28;20210;-64
2022/05/05 11:24:35;;;;;;;11.27;10.27;;;;;;;;;;5056007;28;20269;-65
2022/05/05 11:27:02;;;;;;;11.50;10.40;;;;;;;;;;5075442;28;20454;-64
2022/05/05 11:29:30;;;;;;;10.80;9.80;;;;;;;;;;5056343;28;20684;-64
2022/05/05 11:31:58;;;;;;;12.33;11.20;;;;;;;;;;5051450;28;20201;-63
2022/05/05 11:34:34;;;;;;;13.63;12.33;;;;;;;;;;5060801;28;20200;-64
2022/05/05 11:37:02;;;;;;;14.53;13.13;;;;;;;;;;5059919;28;20220;-64
2022/05/05 11:39:30;;;;;;;16.37;14.70;;;;;;;;;;5061659;28;20210;-64
2022/05/05 11:41:58;;;;;;;15.17;13.63;;;;;;;;;;5055501;28;20204;-64
2022/05/05 11:44:27;;;;;;;13.90;12.60;;;;;;;;;;5056196;28;20255;-64
2022/05/05 11:46:57;;;;;;;15.20;13.80;;;;;;;;;;5078786;28;20227;-64
2022/05/05 11:49:32;;;;;;;14.33;13.03;;;;;;;;;;5065622;28;20220;-63
2022/05/05 11:52:00;;;;;;;13.90;12.60;;;;;;;;;;5056291;28;20266;-64
2022/05/05 11:54:28;;;;;;;13.43;12.23;;;;;;;;;;5049662;28;20210;-65
2022/05/05 11:56:56;;;;;;;12.48;11.27;;;;;;;;;;5050844;28;20221;-64
2022/05/05 12:02:20;;;;;;;13.40;12.13;;;;;;;;;;5071306;28;20205;-65
2022/05/05 12:04:58;;;;;;;13.25;12.02;;;;;;;;;;5071111;28;20853;-65
2022/05/05 12:07:28;;;;;;;11.15;10.15;;;;;;;;;;5065952;28;20267;-65
2022/05/05 12:09:56;;;;;;;11.75;10.63;;;;;;;;;;5052837;28;21156;-65
2022/05/05 12:12:26;;;;;;;11.63;10.52;;;;;;;;;;5058819;28;20205;-65
2022/05/05 12:14:55;;;;;;;14.13;12.70;;;;;;;;;;5058784;28;20584;-65
2022/05/05 12:17:24;;;;;;;13.48;11.57;;;;;;;;;;5063724;28;20231;-65
2022/05/05 12:19:53;;;;;;;12.70;11.45;;;;;;;;;;5057317;28;20224;-64
2022/05/05 12:22:21;;;;;;;13.23;11.82;;;;;;;;;;5058325;28;20205;-65
2022/05/05 12:24:48;;;;;;;10.80;9.80;;;;;;;;;;5058027;28;20215;-65
2022/05/05 12:27:17;;;;;;;11.23;10.23;;;;;;;;;;5059165;28;20224;-64
2022/05/05 12:29:45;;;;;;;17.50;15.20;;;;;;;;;;5077998;28;20236;-64
2022/05/05 12:32:17;;;;;;;10.77;9.77;;;;;;;;;;5074148;28;20201;-64
2022/05/05 12:34:44;;;;;;;10.98;9.90;;;;;;;;;;5057998;28;20250;-64
2022/05/05 12:37:19;;;;;;;11.55;10.45;;;;;;;;;;5045583;28;20231;-65
2022/05/05 12:39:58;;;;;;;11.73;10.63;;;;;;;;;;5052262;28;20226;-65
2022/05/05 12:42:38;;;;;;;12.10;10.93;;;;;;;;;;5042607;28;20831;-64
2022/05/05 12:45:06;;;;;;;11.57;10.48;;;;;;;;;;5050872;28;20201;-63
2022/05/05 12:47:39;;;;;;;10.88;9.75;;;;;;;;;;5063861;28;21106;-64
2022/05/05 12:50:25;;;;;;;10.75;9.75;;;;;;;;;;5053913;28;20228;-64
2022/05/05 13:01:29;;;;;;;13.20;11.32;;;;;;;;;;5069304;28;20662;-63
2022/05/05 13:04:08;;;;;;;21.55;17.20;;;;;;;;;;5045868;28;20220;-64
2022/05/05 13:06:36;;;;;;;14.50;13.00;;;;;;;;;;5062536;28;20224;-65
2022/05/05 13:09:08;;;;;;;11.77;10.68;;;;;;;;;;5075000;28;20629;-63
2022/05/05 13:11:40;;;;;;;11.50;10.40;;;;;;;;;;5072792;28;20200;-64
2022/05/05 13:14:07;;;;;;;12.20;11.02;;;;;;;;;;5062766;28;20201;-64
2022/05/05 13:16:35;;;;;;;11.57;10.50;;;;;;;;;;5057202;28;20220;-65
2022/05/05 13:19:04;;;;;;;11.63;10.63;;;;;;;;;;5055283;28;20217;-64
2022/05/05 13:21:36;;;;;;;10.48;9.55;;;;;;;;;;5052457;28;20193;-66
2022/05/05 13:24:04;;;;;;;12.30;11.07;;;;;;;;;;5045544;28;20204;-64
2022/05/05 13:26:31;;;;;;;11.00;10.10;;;;;;;;;;5055237;28;20216;-63
2022/05/05 13:29:00;;;;;;;11.38;10.18;;;;;;;;;;5058144;28;20200;-65
2022/05/05 13:31:28;;;;;;;12.45;11.35;;;;;;;;;;5062729;28;20224;-65
2022/05/05 13:33:55;;;;;;;13.65;11.07;;;;;;;;;;5070041;28;20208;-64
2022/05/05 13:36:23;;;;;;;12.95;11.77;;;;;;;;;;5072118;28;20732;-64
2022/05/05 13:38:50;;;;;;;13.52;12.23;;;;;;;;;;5048742;28;20201;-64
2022/05/05 13:41:34;;;;;;;14.88;13.48;;;;;;;;;;5080471;28;20617;-64
2022/05/05 13:44:02;;;;;;;13.52;12.32;;;;;;;;;;5056579;28;20293;-65
2022/05/05 13:46:32;;;;;;;17.27;14.98;;;;;;;;;;5055987;28;20224;-64
2022/05/05 13:49:00;;;;;;;14.32;13.02;;;;;;;;;;5069298;28;21823;-64
2022/05/05 13:51:27;;;;;;;14.20;12.90;;;;;;;;;;5056572;28;20610;-64
2022/05/05 13:53:55;;;;;;;15.63;14.13;;;;;;;;;;5059451;28;20221;-64
2022/05/05 13:56:22;;;;;;;15.45;13.90;;;;;;;;;;5043559;28;20254;-65
2022/05/05 13:58:50;;;;;;;14.25;12.85;;;;;;;;;;5079002;28;20295;-66
2022/05/05 14:01:17;;;;;;;12.10;11.00;;;;;;;;;;5038993;28;20437;-64
2022/05/05 14:03:45;;;;;;;14.63;13.18;;;;;;;;;;5059061;28;20201;-64
2022/05/05 14:06:14;;;;;;;14.27;12.98;;;;;;;;;;5041984;28;20690;-64
2022/05/05 14:14:14;;;;;;;16.45;14.57;;;;;;;;;;5065125;28;20201;-64
2022/05/05 14:16:42;;;;;;;15.48;14.00;;;;;;;;;;5049654;28;20231;-63
2022/05/05 14:19:10;;;;;;;15.30;13.70;;;;;;;;;;5047279;28;22016;-63
2022/05/05 14:21:37;;;;;;;14.60;13.20;;;;;;;;;;5049171;28;20728;-62
2022/05/05 14:24:05;;;;;;;15.30;13.73;;;;;;;;;;5046188;28;20678;-64
2022/05/05 14:26:34;;;;;;;15.60;14.10;;;;;;;;;;5045875;28;20611;-64
2022/05/05 14:29:02;;;;;;;17.23;14.82;;;;;;;;;;5052665;28;20283;-63
2022/05/05 14:31:29;;;;;;;17.98;14.75;;;;;;;;;;5061081;28;20263;-64
2022/05/05 14:33:57;;;;;;;17.05;15.25;;;;;;;;;;5053463;28;20209;-62
2022/05/05 14:36:24;;;;;;;16.45;14.98;;;;;;;;;;5057358;28;20212;-62
2022/05/05 14:38:51;;;;;;;16.83;15.23;;;;;;;;;;5060506;28;20205;-64
2022/05/05 14:41:20;;;;;;;17.20;15.48;;;;;;;;;;5060048;28;21149;-64
2022/05/05 14:43:48;;;;;;;32.85;21.60;;;;;;;;;;5059996;28;20662;-64
2022/05/05 14:46:15;;;;;;;20.00;17.93;;;;;;;;;;5049926;28;20209;-64
2022/05/05 14:48:43;;;;;;;18.50;16.73;;;;;;;;;;5052154;28;20205;-64
2022/05/05 14:51:10;;;;;;;17.75;16.13;;;;;;;;;;5045390;28;20267;-64
2022/05/05 14:53:38;;;;;;;18.67;16.57;;;;;;;;;;5059064;28;20338;-64
2022/05/05 14:56:05;;;;;;;18.53;16.80;;;;;;;;;;5064135;28;20209;-62
2022/05/05 14:58:33;;;;;;;18.87;17.13;;;;;;;;;;5068923;28;20282;-65
2022/05/05 15:01:00;;;;;;;19.93;17.80;;;;;;;;;;5068822;28;20224;-64
2022/05/05 15:03:28;;;;;;;18.20;16.50;;;;;;;;;;5060207;28;21341;-64
2022/05/05 15:05:56;;;;;;;19.97;17.97;;;;;;;;;;5057312;28;20292;-62
2022/05/05 15:08:23;;;;;;;19.93;17.83;;;;;;;;;;5063798;28;20770;-64
2022/05/05 15:10:50;;;;;;;21.00;18.90;;;;;;;;;;5057379;28;20233;-64
2022/05/05 15:13:18;;;;;;;22.57;20.37;;;;;;;;;;5060283;28;21061;-64
2022/05/05 15:15:45;;;;;;;20.00;18.00;;;;;;;;;;5063003;28;20201;-64
2022/05/05 15:18:13;;;;;;;18.40;16.60;;;;;;;;;;5063935;28;20234;-64
2022/05/05 15:20:40;;;;;;;19.57;17.77;;;;;;;;;;5053775;28;20209;-64
2022/05/05 15:23:08;;;;;;;18.33;16.63;;;;;;;;;;5050061;28;20211;-64
2022/05/05 15:25:35;;;;;;;19.03;17.20;;;;;;;;;;5069929;28;20262;-64
2022/05/05 15:28:03;;;;;;;20.13;18.13;;;;;;;;;;5054910;28;20228;-64
2022/05/05 15:30:30;;;;;;;19.30;17.40;;;;;;;;;;5060719;28;20256;-62
2022/05/05 15:32:58;;;;;;;19.23;17.23;;;;;;;;;;5058941;28;20213;-63